Soham, United Kingdom
Current Conditions -  °F | °C
As of 5:58 AM on Friday 31 Oct 2014 (Local Time) from EGUN Reporting Station
Clear Clear  
Wind Chill: 57°   Ceiling: Unl
Heat Index: 57°   Visibility: 6mi
Dew Point: 55°   Wind: 6mph
Humidity: 92%   Direction: 170°S
Pressure: 30.02"   Gusts: NA
Location:  52.33°N, 0.34°E
Report Text: EGUN 310558Z AUTO 17005KT 9999 CLR 14/13 A3002 RMK AO2 SLP169 T01370125 10139 20130 55006
Loading
Personal Weather Stations






























Interactive Weather Map
Tropical Storm Tracking
New forecast layout! Learn more

10-Day Weather Forecast

Advertisements
Track Severe Weather on mobile